sensor_id;sensor_type;location;lat;lon;timestamp;temperature;humidity
71155;DHT22;59375;53.216;5.728;2023-03-23T00:01:51;10.20;99.90
71155;DHT22;59375;53.216;5.728;2023-03-23T00:04:17;10.10;99.90
71155;DHT22;59375;53.216;5.728;2023-03-23T00:06:43;10.10;99.90
71155;DHT22;59375;53.216;5.728;2023-03-23T00:09:11;10.10;99.90
71155;DHT22;59375;53.216;5.728;2023-03-23T00:11:37;10.10;99.90
71155;DHT22;59375;53.216;5.728;2023-03-23T00:14:04;10.10;99.90
71155;DHT22;59375;53.216;5.728;2023-03-23T00:16:30;10.10;99.90
71155;DHT22;59375;53.216;5.728;2023-03-23T00:19:01;10.20;99.90
71155;DHT22;59375;53.216;5.728;2023-03-23T00:21:31;10.20;99.90
71155;DHT22;59375;53.216;5.728;2023-03-23T00:24:04;10.20;99.90
71155;DHT22;59375;53.216;5.728;2023-03-23T00:26:31;10.20;99.90
71155;DHT22;59375;53.216;5.728;2023-03-23T00:29:02;10.20;99.90
71155;DHT22;59375;53.216;5.728;2023-03-23T00:31:28;10.30;99.90
71155;DHT22;59375;53.216;5.728;2023-03-23T00:33:58;10.30;99.90
71155;DHT22;59375;53.216;5.728;2023-03-23T00:36:26;10.30;99.90
71155;DHT22;59375;53.216;5.728;2023-03-23T00:38:52;10.30;99.90
71155;DHT22;59375;53.216;5.728;2023-03-23T00:41:17;10.30;99.90
71155;DHT22;59375;53.216;5.728;2023-03-23T00:43:43;10.30;99.90
71155;DHT22;59375;53.216;5.728;2023-03-23T00:46:08;10.30;99.90
71155;DHT22;59375;53.216;5.728;2023-03-23T00:48:35;10.30;99.90
71155;DHT22;59375;53.216;5.728;2023-03-23T00:51:02;10.30;99.90
71155;DHT22;59375;53.216;5.728;2023-03-23T00:53:32;10.30;99.90
71155;DHT22;59375;53.216;5.728;2023-03-23T00:55:57;10.30;99.90
71155;DHT22;59375;53.216;5.728;2023-03-23T00:58:23;10.30;99.90
71155;DHT22;59375;53.216;5.728;2023-03-23T01:00:48;10.30;99.90
71155;DHT22;59375;53.216;5.728;2023-03-23T01:03:13;10.20;99.90
71155;DHT22;59375;53.216;5.728;2023-03-23T01:05:43;10.20;99.90
71155;DHT22;59375;53.216;5.728;2023-03-23T01:08:12;10.20;99.90
71155;DHT22;59375;53.216;5.728;2023-03-23T01:10:38;10.20;99.90
71155;DHT22;59375;53.216;5.728;2023-03-23T01:13:04;10.20;99.90
71155;DHT22;59375;53.216;5.728;2023-03-23T01:15:30;10.20;99.90
71155;DHT22;59375;53.216;5.728;2023-03-23T01:17:56;10.20;99.90
71155;DHT22;59375;53.216;5.728;2023-03-23T01:20:22;10.20;99.90
71155;DHT22;59375;53.216;5.728;2023-03-23T01:22:47;10.30;99.90
71155;DHT22;59375;53.216;5.728;2023-03-23T01:25:13;10.30;99.90
71155;DHT22;59375;53.216;5.728;2023-03-23T01:27:39;10.30;99.90
71155;DHT22;59375;53.216;5.728;2023-03-23T01:30:05;10.30;99.90
71155;DHT22;59375;53.216;5.728;2023-03-23T01:32:31;10.30;99.90
71155;DHT22;59375;53.216;5.728;2023-03-23T01:34:56;10.40;99.90
71155;DHT22;59375;53.216;5.728;2023-03-23T01:37:22;10.40;99.90
71155;DHT22;59375;53.216;5.728;2023-03-23T01:39:54;10.50;99.90
71155;DHT22;59375;53.216;5.728;2023-03-23T01:42:24;10.50;99.90
71155;DHT22;59375;53.216;5.728;2023-03-23T01:47:15;10.60;99.90
71155;DHT22;59375;53.216;5.728;2023-03-23T01:49:45;10.60;99.90
71155;DHT22;59375;53.216;5.728;2023-03-23T01:52:16;10.60;99.90
71155;DHT22;59375;53.216;5.728;2023-03-23T01:54:46;10.60;99.90
71155;DHT22;59375;53.216;5.728;2023-03-23T01:57:15;10.70;99.90
71155;DHT22;59375;53.216;5.728;2023-03-23T01:59:41;10.70;99.90
71155;DHT22;59375;53.216;5.728;2023-03-23T02:02:07;10.70;99.90
71155;DHT22;59375;53.216;5.728;2023-03-23T02:04:33;10.70;99.90
71155;DHT22;59375;53.216;5.728;2023-03-23T02:06:59;10.70;99.90
71155;DHT22;59375;53.216;5.728;2023-03-23T02:09:27;10.70;99.90
71155;DHT22;59375;53.216;5.728;2023-03-23T02:11:53;10.70;99.90
71155;DHT22;59375;53.216;5.728;2023-03-23T02:14:19;10.70;99.90
71155;DHT22;59375;53.216;5.728;2023-03-23T02:35:23;10.60;99.90
71155;DHT22;59375;53.216;5.728;2023-03-23T02:37:51;10.60;99.90
71155;DHT22;59375;53.216;5.728;2023-03-23T02:40:18;10.60;99.90
71155;DHT22;59375;53.216;5.728;2023-03-23T02:42:45;10.60;99.90
71155;DHT22;59375;53.216;5.728;2023-03-23T02:45:12;10.60;99.90
71155;DHT22;59375;53.216;5.728;2023-03-23T02:47:39;10.60;99.90
71155;DHT22;59375;53.216;5.728;2023-03-23T02:50:07;10.60;99.90
71155;DHT22;59375;53.216;5.728;2023-03-23T02:52:34;10.60;99.90
71155;DHT22;59375;53.216;5.728;2023-03-23T02:55:01;10.60;99.90
71155;DHT22;59375;53.216;5.728;2023-03-23T02:57:27;10.60;99.90
71155;DHT22;59375;53.216;5.728;2023-03-23T02:59:53;10.60;99.90
71155;DHT22;59375;53.216;5.728;2023-03-23T03:02:21;10.60;99.90
71155;DHT22;59375;53.216;5.728;2023-03-23T03:05:33;10.60;99.90
71155;DHT22;59375;53.216;5.728;2023-03-23T03:12:34;10.60;99.90
71155;DHT22;59375;53.216;5.728;2023-03-23T03:15:09;10.60;99.90
71155;DHT22;59375;53.216;5.728;2023-03-23T03:17:36;10.60;99.90
71155;DHT22;59375;53.216;5.728;2023-03-23T03:20:08;10.60;99.90
71155;DHT22;59375;53.216;5.728;2023-03-23T03:22:39;10.50;99.90
71155;DHT22;59375;53.216;5.728;2023-03-23T03:25:10;10.50;99.90
71155;DHT22;59375;53.216;5.728;2023-03-23T03:27:38;10.40;99.90
71155;DHT22;59375;53.216;5.728;2023-03-23T03:30:06;10.30;99.90
71155;DHT22;59375;53.216;5.728;2023-03-23T03:32:38;10.20;99.90
71155;DHT22;59375;53.216;5.728;2023-03-23T03:35:05;10.20;99.90
71155;DHT22;59375;53.216;5.728;2023-03-23T03:37:34;10.20;99.90
71155;DHT22;59375;53.216;5.728;2023-03-23T03:40:04;10.20;99.90
71155;DHT22;59375;53.216;5.728;2023-03-23T03:42:30;10.10;99.90
71155;DHT22;59375;53.216;5.728;2023-03-23T03:44:55;10.10;99.90
71155;DHT22;59375;53.216;5.728;2023-03-23T03:47:21;10.00;99.90
71155;DHT22;59375;53.216;5.728;2023-03-23T03:49:46;10.00;99.90
71155;DHT22;59375;53.216;5.728;2023-03-23T03:52:11;10.10;99.90
71155;DHT22;59375;53.216;5.728;2023-03-23T03:54:37;10.00;99.90
71155;DHT22;59375;53.216;5.728;2023-03-23T03:57:02;10.00;99.90
71155;DHT22;59375;53.216;5.728;2023-03-23T03:59:28;10.00;99.90
71155;DHT22;59375;53.216;5.728;2023-03-23T04:01:55;10.00;99.90
71155;DHT22;59375;53.216;5.728;2023-03-23T04:04:21;10.00;99.90
71155;DHT22;59375;53.216;5.728;2023-03-23T04:06:47;10.00;99.90
71155;DHT22;59375;53.216;5.728;2023-03-23T04:09:14;10.00;99.90
71155;DHT22;59375;53.216;5.728;2023-03-23T04:11:39;10.10;99.90
71155;DHT22;59375;53.216;5.728;2023-03-23T04:14:05;10.10;99.90
71155;DHT22;59375;53.216;5.728;2023-03-23T04:16:31;10.10;99.90
71155;DHT22;59375;53.216;5.728;2023-03-23T04:19:00;10.10;99.90
71155;DHT22;59375;53.216;5.728;2023-03-23T04:21:25;10.10;99.90
71155;DHT22;59375;53.216;5.728;2023-03-23T04:23:54;10.00;99.90
71155;DHT22;59375;53.216;5.728;2023-03-23T04:26:20;10.10;99.90
71155;DHT22;59375;53.216;5.728;2023-03-23T04:28:45;10.10;99.90
71155;DHT22;59375;53.216;5.728;2023-03-23T04:31:11;10.00;99.90
71155;DHT22;59375;53.216;5.728;2023-03-23T04:33:37;10.00;99.90
71155;DHT22;59375;53.216;5.728;2023-03-23T04:36:05;10.00;99.90
71155;DHT22;59375;53.216;5.728;2023-03-23T04:38:32;10.00;99.90
71155;DHT22;59375;53.216;5.728;2023-03-23T04:40:59;9.90;99.90
71155;DHT22;59375;53.216;5.728;2023-03-23T04:43:27;9.90;99.90
71155;DHT22;59375;53.216;5.728;2023-03-23T04:45:54;9.90;99.90
71155;DHT22;59375;53.216;5.728;2023-03-23T04:48:24;9.90;99.90
71155;DHT22;59375;53.216;5.728;2023-03-23T04:50:51;9.90;99.90
71155;DHT22;59375;53.216;5.728;2023-03-23T04:53:17;9.90;99.90
71155;DHT22;59375;53.216;5.728;2023-03-23T04:55:43;9.90;99.90
71155;DHT22;59375;53.216;5.728;2023-03-23T04:58:08;9.80;99.90
71155;DHT22;59375;53.216;5.728;2023-03-23T05:00:34;9.80;99.90
71155;DHT22;59375;53.216;5.728;2023-03-23T05:03:00;9.80;99.90
71155;DHT22;59375;53.216;5.728;2023-03-23T05:05:26;9.80;99.90
71155;DHT22;59375;53.216;5.728;2023-03-23T05:07:52;9.80;99.90
71155;DHT22;59375;53.216;5.728;2023-03-23T05:10:18;9.80;99.90
71155;DHT22;59375;53.216;5.728;2023-03-23T05:12:44;9.80;99.90
71155;DHT22;59375;53.216;5.728;2023-03-23T05:15:10;9.80;99.90
71155;DHT22;59375;53.216;5.728;2023-03-23T05:17:36;9.80;99.90
71155;DHT22;59375;53.216;5.728;2023-03-23T05:20:03;9.80;99.90
71155;DHT22;59375;53.216;5.728;2023-03-23T05:22:30;9.70;99.90
71155;DHT22;59375;53.216;5.728;2023-03-23T05:24:59;9.70;99.90
71155;DHT22;59375;53.216;5.728;2023-03-23T05:27:27;9.70;99.90
71155;DHT22;59375;53.216;5.728;2023-03-23T05:29:56;9.80;99.90
71155;DHT22;59375;53.216;5.728;2023-03-23T05:32:24;9.70;99.90
71155;DHT22;59375;53.216;5.728;2023-03-23T05:34:54;9.80;99.90
71155;DHT22;59375;53.216;5.728;2023-03-23T05:37:20;9.80;99.90
71155;DHT22;59375;53.216;5.728;2023-03-23T05:39:45;9.80;99.90
71155;DHT22;59375;53.216;5.728;2023-03-23T05:42:10;9.80;99.90
71155;DHT22;59375;53.216;5.728;2023-03-23T05:44:36;9.80;99.90
71155;DHT22;59375;53.216;5.728;2023-03-23T05:47:02;9.80;99.90
71155;DHT22;59375;53.216;5.728;2023-03-23T05:49:28;9.80;99.90
71155;DHT22;59375;53.216;5.728;2023-03-23T05:51:54;9.80;99.90
71155;DHT22;59375;53.216;5.728;2023-03-23T05:54:19;9.80;99.90
71155;DHT22;59375;53.216;5.728;2023-03-23T05:56:45;9.80;99.90
71155;DHT22;59375;53.216;5.728;2023-03-23T05:59:11;9.70;99.90
71155;DHT22;59375;53.216;5.728;2023-03-23T06:01:36;9.70;99.90
71155;DHT22;59375;53.216;5.728;2023-03-23T06:04:02;9.60;99.90
71155;DHT22;59375;53.216;5.728;2023-03-23T06:06:28;9.50;99.90
71155;DHT22;59375;53.216;5.728;2023-03-23T06:08:58;9.50;99.90
71155;DHT22;59375;53.216;5.728;2023-03-23T06:11:23;9.40;99.90
71155;DHT22;59375;53.216;5.728;2023-03-23T06:13:49;9.30;99.90
71155;DHT22;59375;53.216;5.728;2023-03-23T06:16:15;9.30;99.90
71155;DHT22;59375;53.216;5.728;2023-03-23T06:18:40;9.20;99.90
71155;DHT22;59375;53.216;5.728;2023-03-23T06:21:07;9.10;99.90
71155;DHT22;59375;53.216;5.728;2023-03-23T06:23:33;9.10;99.90
71155;DHT22;59375;53.216;5.728;2023-03-23T06:26:00;9.10;99.90
71155;DHT22;59375;53.216;5.728;2023-03-23T06:28:26;9.10;99.90
71155;DHT22;59375;53.216;5.728;2023-03-23T06:30:52;9.10;99.90
71155;DHT22;59375;53.216;5.728;2023-03-23T06:33:18;9.20;99.90
71155;DHT22;59375;53.216;5.728;2023-03-23T06:35:43;9.20;99.90
71155;DHT22;59375;53.216;5.728;2023-03-23T06:38:09;9.20;99.90
71155;DHT22;59375;53.216;5.728;2023-03-23T06:40:34;9.20;99.90
71155;DHT22;59375;53.216;5.728;2023-03-23T06:43:01;9.20;99.90
71155;DHT22;59375;53.216;5.728;2023-03-23T06:45:27;9.30;99.90
71155;DHT22;59375;53.216;5.728;2023-03-23T06:47:52;9.50;99.90
71155;DHT22;59375;53.216;5.728;2023-03-23T06:50:18;9.80;99.90
71155;DHT22;59375;53.216;5.728;2023-03-23T06:52:47;10.10;99.90
71155;DHT22;59375;53.216;5.728;2023-03-23T06:55:13;10.40;99.90
71155;DHT22;59375;53.216;5.728;2023-03-23T06:57:39;10.60;99.90
71155;DHT22;59375;53.216;5.728;2023-03-23T07:00:05;10.60;99.90
71155;DHT22;59375;53.216;5.728;2023-03-23T07:02:33;10.50;99.90
71155;DHT22;59375;53.216;5.728;2023-03-23T07:04:59;10.40;99.90
71155;DHT22;59375;53.216;5.728;2023-03-23T07:07:25;10.30;99.90
71155;DHT22;59375;53.216;5.728;2023-03-23T07:09:51;10.30;99.90
71155;DHT22;59375;53.216;5.728;2023-03-23T07:12:16;10.20;99.90
71155;DHT22;59375;53.216;5.728;2023-03-23T07:14:42;10.20;99.90
71155;DHT22;59375;53.216;5.728;2023-03-23T07:17:07;10.20;99.90
71155;DHT22;59375;53.216;5.728;2023-03-23T07:19:33;10.20;99.90
71155;DHT22;59375;53.216;5.728;2023-03-23T07:21:58;10.20;99.90
71155;DHT22;59375;53.216;5.728;2023-03-23T07:24:24;10.20;99.90
71155;DHT22;59375;53.216;5.728;2023-03-23T07:26:50;10.20;99.90
71155;DHT22;59375;53.216;5.728;2023-03-23T07:29:16;10.40;99.90
71155;DHT22;59375;53.216;5.728;2023-03-23T07:31:41;11.10;99.90
71155;DHT22;59375;53.216;5.728;2023-03-23T07:34:07;11.80;99.90
71155;DHT22;59375;53.216;5.728;2023-03-23T07:36:33;12.60;99.90
71155;DHT22;59375;53.216;5.728;2023-03-23T07:39:03;13.20;99.90
71155;DHT22;59375;53.216;5.728;2023-03-23T07:41:31;13.80;99.90
71155;DHT22;59375;53.216;5.728;2023-03-23T07:43:56;14.10;99.90
71155;DHT22;59375;53.216;5.728;2023-03-23T07:46:21;14.50;99.90
71155;DHT22;59375;53.216;5.728;2023-03-23T07:48:47;14.70;99.90
71155;DHT22;59375;53.216;5.728;2023-03-23T07:51:14;14.90;99.90
71155;DHT22;59375;53.216;5.728;2023-03-23T07:53:42;14.40;99.90
71155;DHT22;59375;53.216;5.728;2023-03-23T07:56:12;14.00;99.90
71155;DHT22;59375;53.216;5.728;2023-03-23T07:58:42;14.00;99.90
71155;DHT22;59375;53.216;5.728;2023-03-23T08:01:09;13.90;99.90
71155;DHT22;59375;53.216;5.728;2023-03-23T08:03:35;13.80;99.90
71155;DHT22;59375;53.216;5.728;2023-03-23T08:06:02;13.70;99.90
71155;DHT22;59375;53.216;5.728;2023-03-23T08:08:28;13.60;99.90
71155;DHT22;59375;53.216;5.728;2023-03-23T08:10:53;13.60;99.90
71155;DHT22;59375;53.216;5.728;2023-03-23T08:13:19;13.50;99.90
71155;DHT22;59375;53.216;5.728;2023-03-23T08:15:44;13.50;99.90
71155;DHT22;59375;53.216;5.728;2023-03-23T08:18:10;13.60;99.90
71155;DHT22;59375;53.216;5.728;2023-03-23T08:20:36;13.90;99.90
71155;DHT22;59375;53.216;5.728;2023-03-23T08:23:02;14.40;99.90
71155;DHT22;59375;53.216;5.728;2023-03-23T08:25:28;14.90;99.90
71155;DHT22;59375;53.216;5.728;2023-03-23T08:27:56;15.00;99.90
71155;DHT22;59375;53.216;5.728;2023-03-23T08:30:22;15.00;99.90
71155;DHT22;59375;53.216;5.728;2023-03-23T08:32:48;14.80;99.90
71155;DHT22;59375;53.216;5.728;2023-03-23T08:35:14;14.60;99.90
71155;DHT22;59375;53.216;5.728;2023-03-23T08:37:40;14.40;99.90
71155;DHT22;59375;53.216;5.728;2023-03-23T08:40:09;14.40;99.90
71155;DHT22;59375;53.216;5.728;2023-03-23T08:42:38;14.70;99.90
71155;DHT22;59375;53.216;5.728;2023-03-23T08:45:05;15.00;99.90
71155;DHT22;59375;53.216;5.728;2023-03-23T08:47:30;15.30;99.90
71155;DHT22;59375;53.216;5.728;2023-03-23T08:49:56;15.40;99.90
71155;DHT22;59375;53.216;5.728;2023-03-23T08:52:21;15.30;99.90
71155;DHT22;59375;53.216;5.728;2023-03-23T08:54:47;15.00;99.90
71155;DHT22;59375;53.216;5.728;2023-03-23T08:57:13;14.80;99.90
71155;DHT22;59375;53.216;5.728;2023-03-23T08:59:40;14.70;99.90
71155;DHT22;59375;53.216;5.728;2023-03-23T09:02:06;14.70;99.90
71155;DHT22;59375;53.216;5.728;2023-03-23T09:04:32;14.70;99.90
71155;DHT22;59375;53.216;5.728;2023-03-23T09:06:57;14.60;99.90
71155;DHT22;59375;53.216;5.728;2023-03-23T09:09:23;14.70;99.90
71155;DHT22;59375;53.216;5.728;2023-03-23T09:11:48;14.80;99.90
71155;DHT22;59375;53.216;5.728;2023-03-23T09:14:14;14.90;99.90
71155;DHT22;59375;53.216;5.728;2023-03-23T09:16:39;14.90;99.90
71155;DHT22;59375;53.216;5.728;2023-03-23T09:19:05;14.90;99.90
71155;DHT22;59375;53.216;5.728;2023-03-23T09:21:30;15.00;99.90
71155;DHT22;59375;53.216;5.728;2023-03-23T09:23:56;15.10;99.90
71155;DHT22;59375;53.216;5.728;2023-03-23T09:26:26;15.10;99.90
71155;DHT22;59375;53.216;5.728;2023-03-23T09:28:52;14.90;99.90
71155;DHT22;59375;53.216;5.728;2023-03-23T09:31:18;14.80;99.90
71155;DHT22;59375;53.216;5.728;2023-03-23T09:33:46;14.60;99.90
71155;DHT22;59375;53.216;5.728;2023-03-23T09:36:11;14.60;99.90
71155;DHT22;59375;53.216;5.728;2023-03-23T09:38:39;14.60;99.90
71155;DHT22;59375;53.216;5.728;2023-03-23T09:46:32;14.60;99.90
71155;DHT22;59375;53.216;5.728;2023-03-23T09:49:01;14.70;99.90
71155;DHT22;59375;53.216;5.728;2023-03-23T09:51:32;14.70;99.90
71155;DHT22;59375;53.216;5.728;2023-03-23T09:54:04;14.70;99.90
71155;DHT22;59375;53.216;5.728;2023-03-23T09:56:31;14.60;99.90
71155;DHT22;59375;53.216;5.728;2023-03-23T09:59:02;14.30;99.90
71155;DHT22;59375;53.216;5.728;2023-03-23T10:01:37;14.10;99.90
71155;DHT22;59375;53.216;5.728;2023-03-23T10:04:07;14.20;99.90
71155;DHT22;59375;53.216;5.728;2023-03-23T10:06:34;14.40;99.90
71155;DHT22;59375;53.216;5.728;2023-03-23T10:09:02;14.50;99.90
71155;DHT22;59375;53.216;5.728;2023-03-23T10:11:47;14.60;99.90
71155;DHT22;59375;53.216;5.728;2023-03-23T10:17:11;14.80;99.90
71155;DHT22;59375;53.216;5.728;2023-03-23T10:19:46;15.00;99.90
71155;DHT22;59375;53.216;5.728;2023-03-23T10:22:12;15.10;99.90
71155;DHT22;59375;53.216;5.728;2023-03-23T10:24:53;15.10;99.90
71155;DHT22;59375;53.216;5.728;2023-03-23T10:27:33;15.20;99.90
71155;DHT22;59375;53.216;5.728;2023-03-23T10:30:24;15.50;99.90
71155;DHT22;59375;53.216;5.728;2023-03-23T10:32:49;15.80;99.90
71155;DHT22;59375;53.216;5.728;2023-03-23T10:35:18;16.20;99.90
71155;DHT22;59375;53.216;5.728;2023-03-23T10:37:47;16.40;99.90
71155;DHT22;59375;53.216;5.728;2023-03-23T10:40:18;16.50;99.90
71155;DHT22;59375;53.216;5.728;2023-03-23T10:42:44;16.70;99.90
71155;DHT22;59375;53.216;5.728;2023-03-23T10:47:40;17.10;99.90
71155;DHT22;59375;53.216;5.728;2023-03-23T10:50:10;16.70;99.90
71155;DHT22;59375;53.216;5.728;2023-03-23T10:52:38;16.70;99.90
71155;DHT22;59375;53.216;5.728;2023-03-23T10:55:06;16.50;99.90
71155;DHT22;59375;53.216;5.728;2023-03-23T10:57:33;16.40;99.90
71155;DHT22;59375;53.216;5.728;2023-03-23T11:00:06;16.10;99.90
71155;DHT22;59375;53.216;5.728;2023-03-23T11:02:41;15.90;99.90
71155;DHT22;59375;53.216;5.728;2023-03-23T11:05:19;15.70;99.90
71155;DHT22;59375;53.216;5.728;2023-03-23T11:07:50;15.70;99.90
71155;DHT22;59375;53.216;5.728;2023-03-23T11:10:18;15.70;99.90
71155;DHT22;59375;53.216;5.728;2023-03-23T11:12:45;15.60;99.90
71155;DHT22;59375;53.216;5.728;2023-03-23T11:15:21;15.60;99.90
71155;DHT22;59375;53.216;5.728;2023-03-23T11:17:55;15.90;99.90
71155;DHT22;59375;53.216;5.728;2023-03-23T11:20:21;16.70;99.90
71155;DHT22;59375;53.216;5.728;2023-03-23T11:22:47;17.10;99.90
71155;DHT22;59375;53.216;5.728;2023-03-23T11:25:13;17.20;99.90
71155;DHT22;59375;53.216;5.728;2023-03-23T11:27:38;17.10;99.90
71155;DHT22;59375;53.216;5.728;2023-03-23T11:30:19;17.10;99.90
71155;DHT22;59375;53.216;5.728;2023-03-23T11:32:46;17.40;99.90
71155;DHT22;59375;53.216;5.728;2023-03-23T11:35:20;17.90;99.90
71155;DHT22;59375;53.216;5.728;2023-03-23T11:37:53;17.90;99.90
71155;DHT22;59375;53.216;5.728;2023-03-23T11:40:20;17.60;99.90
71155;DHT22;59375;53.216;5.728;2023-03-23T11:42:56;17.30;99.90
71155;DHT22;59375;53.216;5.728;2023-03-23T11:45:31;17.30;99.90
71155;DHT22;59375;53.216;5.728;2023-03-23T11:48:19;17.70;99.90
71155;DHT22;59375;53.216;5.728;2023-03-23T11:50:52;18.40;99.90
71155;DHT22;59375;53.216;5.728;2023-03-23T11:55:55;19.80;99.90
71155;DHT22;59375;53.216;5.728;2023-03-23T11:58:23;20.20;99.90
71155;DHT22;59375;53.216;5.728;2023-03-23T12:00:49;20.40;99.90
71155;DHT22;59375;53.216;5.728;2023-03-23T12:11:38;20.10;99.90
71155;DHT22;59375;53.216;5.728;2023-03-23T12:14:22;20.10;99.90
71155;DHT22;59375;53.216;5.728;2023-03-23T12:24:46;20.10;99.90
71155;DHT22;59375;53.216;5.728;2023-03-23T12:34:39;20.60;99.90
71155;DHT22;59375;53.216;5.728;2023-03-23T12:39:52;20.30;99.90
71155;DHT22;59375;53.216;5.728;2023-03-23T12:47:43;21.20;99.90
71155;DHT22;59375;53.216;5.728;2023-03-23T12:50:15;21.00;99.90
71155;DHT22;59375;53.216;5.728;2023-03-23T12:55:17;21.40;99.90
71155;DHT22;59375;53.216;5.728;2023-03-23T12:58:06;21.60;99.90
71155;DHT22;59375;53.216;5.728;2023-03-23T13:00:32;21.70;99.90
71155;DHT22;59375;53.216;5.728;2023-03-23T13:03:11;21.60;99.90
71155;DHT22;59375;53.216;5.728;2023-03-23T13:08:15;21.10;99.90
71155;DHT22;59375;53.216;5.728;2023-03-23T13:10:45;21.00;99.90
71155;DHT22;59375;53.216;5.728;2023-03-23T13:13:13;21.00;99.90
71155;DHT22;59375;53.216;5.728;2023-03-23T13:15:48;20.40;99.90
71155;DHT22;59375;53.216;5.728;2023-03-23T13:18:24;19.50;99.90
71155;DHT22;59375;53.216;5.728;2023-03-23T13:20:57;19.20;99.90
71155;DHT22;59375;53.216;5.728;2023-03-23T13:23:28;19.00;99.90
71155;DHT22;59375;53.216;5.728;2023-03-23T13:28:27;18.80;99.90
71155;DHT22;59375;53.216;5.728;2023-03-23T13:30:57;18.90;99.90
71155;DHT22;59375;53.216;5.728;2023-03-23T13:33:23;18.90;99.90
71155;DHT22;59375;53.216;5.728;2023-03-23T13:35:49;18.80;99.90
71155;DHT22;59375;53.216;5.728;2023-03-23T13:38:26;19.10;99.90
71155;DHT22;59375;53.216;5.728;2023-03-23T13:40:53;19.20;99.90
71155;DHT22;59375;53.216;5.728;2023-03-23T13:43:32;19.10;99.90
71155;DHT22;59375;53.216;5.728;2023-03-23T13:48:50;18.50;99.90
71155;DHT22;59375;53.216;5.728;2023-03-23T13:54:05;18.80;99.90
71155;DHT22;59375;53.216;5.728;2023-03-23T13:59:17;18.70;99.90
71155;DHT22;59375;53.216;5.728;2023-03-23T14:01:53;18.30;99.90
71155;DHT22;59375;53.216;5.728;2023-03-23T14:04:20;18.20;99.90
71155;DHT22;59375;53.216;5.728;2023-03-23T14:06:46;18.20;99.90
71155;DHT22;59375;53.216;5.728;2023-03-23T14:09:15;18.10;99.90
71155;DHT22;59375;53.216;5.728;2023-03-23T14:11:46;17.80;99.90
71155;DHT22;59375;53.216;5.728;2023-03-23T14:14:14;17.50;99.90
71155;DHT22;59375;53.216;5.728;2023-03-23T14:16:41;17.50;99.90
71155;DHT22;59375;53.216;5.728;2023-03-23T14:19:13;17.40;99.90
71155;DHT22;59375;53.216;5.728;2023-03-23T14:21:44;17.30;99.90
71155;DHT22;59375;53.216;5.728;2023-03-23T14:24:19;17.10;99.90
71155;DHT22;59375;53.216;5.728;2023-03-23T14:26:44;17.00;99.90
71155;DHT22;59375;53.216;5.728;2023-03-23T14:29:11;16.90;99.90
71155;DHT22;59375;53.216;5.728;2023-03-23T14:31:37;16.90;99.90
71155;DHT22;59375;53.216;5.728;2023-03-23T14:34:04;16.80;99.90
71155;DHT22;59375;53.216;5.728;2023-03-23T14:36:31;16.90;99.90
71155;DHT22;59375;53.216;5.728;2023-03-23T14:41:22;16.70;99.90
71155;DHT22;59375;53.216;5.728;2023-03-23T14:43:47;16.50;99.90
71155;DHT22;59375;53.216;5.728;2023-03-23T14:46:13;16.50;99.90
71155;DHT22;59375;53.216;5.728;2023-03-23T14:48:39;16.40;99.90
71155;DHT22;59375;53.216;5.728;2023-03-23T14:51:05;16.40;99.90
71155;DHT22;59375;53.216;5.728;2023-03-23T14:53:39;16.50;99.90
71155;DHT22;59375;53.216;5.728;2023-03-23T14:56:14;16.40;99.90
71155;DHT22;59375;53.216;5.728;2023-03-23T14:58:48;16.40;99.90
71155;DHT22;59375;53.216;5.728;2023-03-23T15:01:24;16.40;99.90
71155;DHT22;59375;53.216;5.728;2023-03-23T15:06:23;16.20;99.90
71155;DHT22;59375;53.216;5.728;2023-03-23T15:08:50;16.10;99.90
71155;DHT22;59375;53.216;5.728;2023-03-23T15:13:44;16.00;99.90
71155;DHT22;59375;53.216;5.728;2023-03-23T15:16:16;16.00;99.90
71155;DHT22;59375;53.216;5.728;2023-03-23T15:18:47;15.90;99.90
71155;DHT22;59375;53.216;5.728;2023-03-23T15:21:30;15.90;99.90
71155;DHT22;59375;53.216;5.728;2023-03-23T15:23:56;15.80;99.90
71155;DHT22;59375;53.216;5.728;2023-03-23T15:28:50;15.70;99.90
71155;DHT22;59375;53.216;5.728;2023-03-23T15:31:15;15.70;99.90
71155;DHT22;59375;53.216;5.728;2023-03-23T15:33:41;15.60;99.90
71155;DHT22;59375;53.216;5.728;2023-03-23T15:36:15;15.50;99.90
71155;DHT22;59375;53.216;5.728;2023-03-23T15:38:42;15.40;99.90
71155;DHT22;59375;53.216;5.728;2023-03-23T15:41:20;15.40;99.90
71155;DHT22;59375;53.216;5.728;2023-03-23T15:43:50;15.30;99.90
71155;DHT22;59375;53.216;5.728;2023-03-23T15:48:48;15.10;99.90
71155;DHT22;59375;53.216;5.728;2023-03-23T15:51:14;15.00;99.90
71155;DHT22;59375;53.216;5.728;2023-03-23T15:53:40;14.90;99.90
71155;DHT22;59375;53.216;5.728;2023-03-23T15:56:07;14.90;99.90
71155;DHT22;59375;53.216;5.728;2023-03-23T15:58:33;14.80;99.90
71155;DHT22;59375;53.216;5.728;2023-03-23T16:00:59;14.80;99.90
71155;DHT22;59375;53.216;5.728;2023-03-23T16:03:27;14.60;99.90
71155;DHT22;59375;53.216;5.728;2023-03-23T16:05:54;14.50;99.90
71155;DHT22;59375;53.216;5.728;2023-03-23T16:08:20;14.30;99.90
71155;DHT22;59375;53.216;5.728;2023-03-23T16:10:46;14.20;99.90
71155;DHT22;59375;53.216;5.728;2023-03-23T16:13:12;14.00;99.90
71155;DHT22;59375;53.216;5.728;2023-03-23T16:15:37;13.90;99.90
71155;DHT22;59375;53.216;5.728;2023-03-23T16:18:03;13.90;99.90
71155;DHT22;59375;53.216;5.728;2023-03-23T16:20:29;13.90;99.90
71155;DHT22;59375;53.216;5.728;2023-03-23T16:22:54;13.80;99.90
71155;DHT22;59375;53.216;5.728;2023-03-23T16:25:20;13.80;99.90
71155;DHT22;59375;53.216;5.728;2023-03-23T16:27:46;13.70;99.90
71155;DHT22;59375;53.216;5.728;2023-03-23T16:30:18;13.70;99.90
71155;DHT22;59375;53.216;5.728;2023-03-23T16:32:44;13.70;99.90
71155;DHT22;59375;53.216;5.728;2023-03-23T16:35:11;13.70;99.90
71155;DHT22;59375;53.216;5.728;2023-03-23T16:37:36;13.70;99.90
71155;DHT22;59375;53.216;5.728;2023-03-23T16:40:02;13.70;99.90
71155;DHT22;59375;53.216;5.728;2023-03-23T16:42:27;13.60;99.90
71155;DHT22;59375;53.216;5.728;2023-03-23T16:44:53;13.60;99.90
71155;DHT22;59375;53.216;5.728;2023-03-23T16:47:19;13.50;99.90
71155;DHT22;59375;53.216;5.728;2023-03-23T16:49:47;13.40;99.90
71155;DHT22;59375;53.216;5.728;2023-03-23T16:52:13;13.30;99.90
71155;DHT22;59375;53.216;5.728;2023-03-23T16:54:38;13.30;99.90
71155;DHT22;59375;53.216;5.728;2023-03-23T16:57:04;13.30;99.90
71155;DHT22;59375;53.216;5.728;2023-03-23T16:59:30;13.20;99.90
71155;DHT22;59375;53.216;5.728;2023-03-23T17:01:56;13.20;99.90
71155;DHT22;59375;53.216;5.728;2023-03-23T17:04:27;13.20;99.90
71155;DHT22;59375;53.216;5.728;2023-03-23T17:06:53;13.10;99.90
71155;DHT22;59375;53.216;5.728;2023-03-23T17:09:18;13.10;99.90
71155;DHT22;59375;53.216;5.728;2023-03-23T17:11:44;13.10;99.90
71155;DHT22;59375;53.216;5.728;2023-03-23T17:14:09;13.00;99.90
71155;DHT22;59375;53.216;5.728;2023-03-23T17:16:35;12.90;99.90